Time;durP1;ratioP1;P1;durP2;ratioP2;P2;SDS_P1;SDS_P2;PMS_P1;PMS_P2;Temp;Humidity;BMP_temperature;BMP_pressure;BME280_temperature;BME280_humidity;BME280_pressure;Samples;Min_cycle;Max_cycle;Signal;HPM_P1;HPM_P2
2021/07/09 00:04:34;;;;;;;6.13;1.20;;;23.20;99.90;;;;;;20741861;28;20226;-69
2021/07/09 00:14:39;;;;;;;0.90;0.67;;;22.80;99.90;;;;;;22493642;23;20782;-68
2021/07/09 00:24:43;;;;;;;0.57;0.33;;;22.80;99.90;;;;;;20819949;28;20289;-69
2021/07/09 00:34:48;;;;;;;1.17;0.27;;;22.60;99.90;;;;;;20822296;28;20715;-69
2021/07/09 00:44:51;;;;;;;0.60;0.37;;;22.50;99.90;;;;;;20819299;28;20637;-68
2021/07/09 00:54:56;;;;;;;1.80;0.80;;;22.40;99.90;;;;;;20819586;28;20209;-68
2021/07/09 01:05:00;;;;;;;0.90;0.37;;;22.30;99.90;;;;;;20819660;28;20230;-68
2021/07/09 01:15:06;;;;;;;0.90;0.40;;;22.30;99.90;;;;;;20840223;28;20718;-68
2021/07/09 01:25:15;;;;;;;1.27;0.77;;;22.10;99.90;;;;;;20819054;28;20210;-67
2021/07/09 01:35:19;;;;;;;0.63;0.30;;;21.80;99.90;;;;;;20816678;28;20274;-67
2021/07/09 01:45:25;;;;;;;1.23;0.50;;;21.70;99.90;;;;;;20816915;28;20604;-69
2021/07/09 01:55:29;;;;;;;0.70;0.57;;;21.60;99.90;;;;;;20816719;28;20284;-69
2021/07/09 02:05:34;;;;;;;2.00;0.40;;;21.60;99.90;;;;;;20821301;28;20230;-69
2021/07/09 02:15:41;;;;;;;0.20;0.20;;;21.40;99.90;;;;;;20832607;28;20237;-68
2021/07/09 02:25:46;;;;;;;0.63;0.50;;;21.30;99.90;;;;;;20831608;28;20267;-69
2021/07/09 02:35:50;;;;;;;0.30;0.30;;;21.10;99.90;;;;;;20831228;28;20205;-68
2021/07/09 02:45:55;;;;;;;0.53;0.20;;;21.10;99.90;;;;;;20830354;28;20598;-68
2021/07/09 02:55:59;;;;;;;2.43;1.33;;;21.00;99.90;;;;;;20829098;28;20234;-69
2021/07/09 03:06:04;;;;;;;0.40;0.40;;;21.00;99.90;;;;;;20829403;28;20222;-68
2021/07/09 03:16:07;;;;;;;0.60;0.43;;;21.00;99.90;;;;;;20826340;28;20312;-67
2021/07/09 03:26:13;;;;;;;0.30;0.30;;;20.90;99.90;;;;;;20832318;28;20249;-68
2021/07/09 03:36:16;;;;;;;0.67;0.43;;;20.80;99.90;;;;;;20823056;28;20289;-67
2021/07/09 03:46:21;;;;;;;0.70;0.70;;;20.80;99.90;;;;;;20825834;28;20241;-68
2021/07/09 03:56:28;;;;;;;0.57;0.40;;;20.80;99.90;;;;;;20824194;28;20210;-69
2021/07/09 04:06:33;;;;;;;0.43;0.30;;;20.90;99.90;;;;;;20824126;28;20316;-69
2021/07/09 04:16:37;;;;;;;0.30;0.20;;;20.90;99.90;;;;;;20823909;28;20309;-69
2021/07/09 04:26:42;;;;;;;0.90;0.70;;;20.80;99.90;;;;;;20822332;28;20225;-68
2021/07/09 04:36:45;;;;;;;1.60;0.70;;;20.80;99.90;;;;;;20821462;28;20202;-68
2021/07/09 04:46:51;;;;;;;0.47;0.40;;;20.90;99.90;;;;;;20820650;28;20312;-67
2021/07/09 04:56:54;;;;;;;0.63;0.63;;;21.10;99.90;;;;;;20819920;28;20202;-67
2021/07/09 05:06:59;;;;;;;1.23;1.00;;;21.50;99.90;;;;;;20818394;28;20712;-69
2021/07/09 05:17:03;;;;;;;1.23;1.03;;;22.00;99.90;;;;;;20817224;28;20314;-69
2021/07/09 05:27:09;;;;;;;39.27;1.40;;;22.10;99.90;;;;;;20815667;28;20230;-69
2021/07/09 05:37:13;;;;;;;2.67;0.70;;;22.30;99.90;;;;;;20814410;28;20467;-68
2021/07/09 05:47:18;;;;;;;0.37;0.37;;;22.70;99.90;;;;;;20834986;28;20261;-70
2021/07/09 05:57:22;;;;;;;1.23;0.70;;;23.00;99.90;;;;;;20817118;28;20222;-69
2021/07/09 06:07:27;;;;;;;0.57;0.40;;;23.00;99.90;;;;;;20815270;28;20202;-69
2021/07/09 06:17:30;;;;;;;0.43;0.37;;;23.10;99.90;;;;;;20813716;28;20563;-69
2021/07/09 06:27:35;;;;;;;0.68;0.57;;;23.30;99.90;;;;;;20815907;28;20611;-69
2021/07/09 06:37:39;;;;;;;0.45;0.40;;;23.80;99.90;;;;;;20814704;28;20229;-68
2021/07/09 06:47:44;;;;;;;3.05;1.73;;;23.90;99.90;;;;;;20746449;28;20199;-69
2021/07/09 06:57:48;;;;;;;0.63;0.38;;;24.00;99.90;;;;;;20788150;28;20201;-68
2021/07/09 07:07:53;;;;;;;1.40;0.80;;;24.50;99.90;;;;;;20825820;28;20666;-70
2021/07/09 07:18:02;;;;;;;5.38;1.00;;;24.50;99.90;;;;;;20752221;28;20318;-67
2021/07/09 07:28:08;;;;;;;0.20;0.20;;;24.30;99.90;;;;;;20744112;28;20217;-67
2021/07/09 07:38:12;;;;;;;0.63;0.35;;;24.50;99.90;;;;;;20780325;28;20301;-69
2021/07/09 07:48:17;;;;;;;0.70;0.68;;;24.90;99.90;;;;;;20823718;28;20681;-67
2021/07/09 07:58:21;;;;;;;1.08;0.80;;;25.10;99.90;;;;;;20756836;28;20250;-68
2021/07/09 08:08:26;;;;;;;2.85;0.95;;;25.30;99.90;;;;;;20739801;28;20290;-69
2021/07/09 08:18:29;;;;;;;0.47;0.43;;;25.30;99.90;;;;;;20750287;28;20223;-68
2021/07/09 08:28:35;;;;;;;1.00;0.88;;;25.90;99.90;;;;;;20800651;28;20198;-67
2021/07/09 08:38:39;;;;;;;0.77;0.40;;;25.80;99.90;;;;;;20819595;28;20705;-69
2021/07/09 08:48:45;;;;;;;9.27;2.58;;;25.80;99.90;;;;;;20788317;28;20202;-68
2021/07/09 08:58:49;;;;;;;0.70;0.28;;;26.30;99.90;;;;;;20748976;28;20980;-67
2021/07/09 09:08:54;;;;;;;0.40;0.40;;;26.10;99.90;;;;;;20777020;28;20210;-66
2021/07/09 09:18:58;;;;;;;1.10;0.38;;;26.60;99.90;;;;;;20776184;28;20234;-63
2021/07/09 09:29:03;;;;;;;1.02;0.90;;;26.70;99.90;;;;;;20789502;28;20186;-68
2021/07/09 09:39:18;;;;;;;13.45;2.00;;;26.40;99.90;;;;;;20770888;28;20253;-66
2021/07/09 09:49:31;;;;;;;4.80;0.82;;;26.40;99.90;;;;;;20773202;28;20198;-66
2021/07/09 09:59:42;;;;;;;0.55;0.55;;;27.20;99.90;;;;;;20754914;28;20570;-66
2021/07/09 10:09:48;;;;;;;2.28;0.80;;;26.80;99.90;;;;;;20773041;28;20276;-66
2021/07/09 10:19:54;;;;;;;1.27;0.95;;;26.70;99.90;;;;;;20785880;28;20265;-67
2021/07/09 10:30:17;;;;;;;0.50;0.50;;;26.80;99.90;;;;;;20781507;28;20615;-67
2021/07/09 10:40:22;;;;;;;1.75;0.50;;;26.90;99.90;;;;;;20786205;28;20233;-65
2021/07/09 10:50:44;;;;;;;3.40;0.47;;;26.90;99.90;;;;;;20792163;28;20278;-65
2021/07/09 11:00:50;;;;;;;1.42;0.90;;;27.00;99.90;;;;;;20794220;28;20561;-67
2021/07/09 11:10:58;;;;;;;4.03;0.98;;;26.90;99.90;;;;;;20784903;28;20294;-69
2021/07/09 11:21:09;;;;;;;1.67;0.60;;;27.70;99.90;;;;;;20803464;28;20734;-68
2021/07/09 11:31:31;;;;;;;0.60;0.60;;;27.20;99.90;;;;;;20754385;28;20289;-70
2021/07/09 11:41:54;;;;;;;7.68;0.63;;;27.40;99.90;;;;;;20794259;28;20305;-67
2021/07/09 11:52:01;;;;;;;0.43;0.43;;;28.10;99.90;;;;;;20794366;28;20222;-67
2021/07/09 12:02:16;;;;;;;1.75;1.10;;;28.00;99.90;;;;;;20802499;28;20679;-66
2021/07/09 12:12:23;;;;;;;0.82;0.70;;;28.40;99.90;;;;;;20786268;28;20240;-67
2021/07/09 12:22:30;;;;;;;0.57;0.45;;;28.60;99.90;;;;;;20780482;28;20261;-68
2021/07/09 12:32:47;;;;;;;3.13;0.82;;;28.70;99.90;;;;;;20777771;28;20218;-67
2021/07/09 12:42:50;;;;;;;0.80;0.73;;;29.00;99.90;;;;;;20764269;28;20250;-67
2021/07/09 12:52:55;;;;;;;0.63;0.60;;;29.20;99.90;;;;;;20806409;28;20245;-68
2021/07/09 13:02:59;;;;;;;1.27;0.55;;;29.70;99.90;;;;;;20817005;28;20728;-68
2021/07/09 13:13:17;;;;;;;2.10;1.02;;;29.40;99.90;;;;;;20818481;28;20204;-69
2021/07/09 13:23:21;;;;;;;1.50;0.93;;;29.30;99.90;;;;;;20817214;28;20244;-65
2021/07/09 13:33:26;;;;;;;0.95;0.57;;;29.70;99.90;;;;;;20817024;28;20204;-66
2021/07/09 13:43:29;;;;;;;0.82;0.68;;;32.10;99.90;;;;;;20815799;28;20648;-67
2021/07/09 13:53:36;;;;;;;0.55;0.50;;;32.00;99.90;;;;;;20810934;28;20193;-68
2021/07/09 14:03:40;;;;;;;1.35;0.90;;;31.80;99.90;;;;;;20780783;28;20229;-69
2021/07/09 14:13:45;;;;;;;3.80;0.85;;;31.00;99.90;;;;;;20783958;28;20202;-67
2021/07/09 14:23:49;;;;;;;1.95;0.70;;;31.10;99.90;;;;;;20816533;28;20279;-66
2021/07/09 14:33:54;;;;;;;5.85;1.25;;;31.90;99.90;;;;;;20828136;28;20558;-67
2021/07/09 14:43:57;;;;;;;0.60;0.60;;;32.50;99.90;;;;;;20834920;28;20253;-67
2021/07/09 14:54:02;;;;;;;2.40;1.33;;;33.20;99.90;;;;;;20835250;28;20198;-68
2021/07/09 15:04:10;;;;;;;1.42;0.75;;;34.50;99.90;;;;;;20813734;28;20686;-67
2021/07/09 15:14:19;;;;;;;1.35;1.02;;;35.10;99.90;;;;;;20822662;28;20222;-66
2021/07/09 15:24:23;;;;;;;1.33;0.65;;;33.60;99.90;;;;;;20744167;28;20691;-72
2021/07/09 15:34:28;;;;;;;1.13;0.65;;;33.10;99.90;;;;;;20778197;28;20357;-67
2021/07/09 15:44:32;;;;;;;3.30;0.70;;;33.10;99.90;;;;;;20754066;28;20234;-66
2021/07/09 15:54:37;;;;;;;0.70;0.50;;;33.30;99.90;;;;;;20819871;28;20221;-67
2021/07/09 16:04:41;;;;;;;2.65;0.90;;;34.20;99.90;;;;;;20819935;28;20555;-65
2021/07/09 16:14:46;;;;;;;1.10;0.73;;;35.00;99.90;;;;;;20817996;28;20240;-67
2021/07/09 16:24:50;;;;;;;3.15;0.90;;;34.40;99.90;;;;;;20768614;28;21003;-66
2021/07/09 16:35:03;;;;;;;1.15;0.85;;;34.10;99.90;;;;;;20778033;28;20276;-65
2021/07/09 16:45:08;;;;;;;0.68;0.68;;;33.80;99.90;;;;;;20815663;28;20548;-67
2021/07/09 16:55:13;;;;;;;0.82;0.60;;;32.50;99.90;;;;;;20816272;28;20263;-68
2021/07/09 17:05:17;;;;;;;0.43;0.43;;;31.60;99.90;;;;;;20789305;28;20211;-68
2021/07/09 17:15:24;;;;;;;1.42;0.65;;;31.60;99.90;;;;;;20810395;28;20321;-68
2021/07/09 17:25:30;;;;;;;6.80;0.55;;;32.90;99.90;;;;;;20810332;28;20214;-67
2021/07/09 17:35:35;;;;;;;3.20;1.02;;;33.00;99.90;;;;;;20810016;28;20186;-66
2021/07/09 17:45:39;;;;;;;1.55;0.85;;;32.50;99.90;;;;;;20812019;28;20307;-68
2021/07/09 17:55:45;;;;;;;1.10;0.80;;;32.20;99.90;;;;;;20774334;28;20271;-67
2021/07/09 18:05:48;;;;;;;5.55;1.00;;;32.30;99.90;;;;;;20773689;28;20697;-67
2021/07/09 18:15:53;;;;;;;1.88;1.08;;;30.80;99.90;;;;;;20773877;28;20225;-68
2021/07/09 18:25:58;;;;;;;0.60;0.60;;;30.70;99.90;;;;;;20807484;28;20233;-67
2021/07/09 18:36:03;;;;;;;8.40;2.33;;;30.40;99.90;;;;;;20785930;28;20695;-67
2021/07/09 18:46:07;;;;;;;0.75;0.45;;;30.30;99.90;;;;;;20729620;28;20226;-68
2021/07/09 18:56:12;;;;;;;1.52;0.73;;;29.10;99.90;;;;;;20741275;28;20210;-67
2021/07/09 19:06:16;;;;;;;0.50;0.32;;;28.00;99.90;;;;;;20775730;28;20228;-67
2021/07/09 19:16:21;;;;;;;0.57;0.50;;;26.70;99.90;;;;;;20839087;28;20257;-65
2021/07/09 19:26:24;;;;;;;1.45;0.60;;;26.30;99.90;;;;;;20758945;28;20570;-68
2021/07/09 19:36:29;;;;;;;1.08;0.63;;;26.10;99.90;;;;;;20795227;28;20281;-68
2021/07/09 19:46:33;;;;;;;1.13;0.80;;;25.80;99.90;;;;;;20814991;28;20324;-68
2021/07/09 19:56:42;;;;;;;0.30;0.13;;;25.80;99.90;;;;;;20819872;28;20269;-66
2021/07/09 20:06:46;;;;;;;0.77;0.77;;;25.70;99.90;;;;;;20817887;28;20237;-66
2021/07/09 20:16:51;;;;;;;0.43;0.40;;;25.60;99.90;;;;;;20755949;28;20726;-67
2021/07/09 20:26:55;;;;;;;0.40;0.40;;;25.50;99.90;;;;;;20817832;28;20691;-68
2021/07/09 20:37:00;;;;;;;1.08;0.88;;;25.20;99.90;;;;;;20817377;28;20201;-67
2021/07/09 20:47:04;;;;;;;1.90;0.73;;;25.10;99.90;;;;;;20819979;28;20226;-68
2021/07/09 20:57:09;;;;;;;1.00;0.73;;;25.10;99.90;;;;;;20819941;28;20199;-67
2021/07/09 21:07:13;;;;;;;2.03;1.17;;;25.00;99.90;;;;;;20818403;28;20317;-68
2021/07/09 21:17:25;;;;;;;0.63;0.52;;;24.70;99.90;;;;;;20804884;28;20657;-68
2021/07/09 21:27:29;;;;;;;1.33;0.68;;;24.30;99.90;;;;;;20745857;28;20250;-68
2021/07/09 21:37:34;;;;;;;7.40;0.73;;;23.70;99.90;;;;;;20798488;28;20743;-67
2021/07/09 21:47:38;;;;;;;2.53;0.73;;;23.60;99.90;;;;;;20817421;28;20240;-68
2021/07/09 21:57:43;;;;;;;0.37;0.33;;;23.10;99.90;;;;;;20816254;28;20198;-69
2021/07/09 22:07:47;;;;;;;0.60;0.47;;;23.10;99.90;;;;;;20812117;28;20313;-67
2021/07/09 22:17:52;;;;;;;4.50;1.10;;;23.00;99.90;;;;;;20732004;28;20218;-68
2021/07/09 22:27:57;;;;;;;0.43;0.43;;;22.80;99.90;;;;;;20816254;28;20222;-68
2021/07/09 22:38:02;;;;;;;1.53;0.50;;;22.80;99.90;;;;;;20830371;28;20551;-68
2021/07/09 22:48:07;;;;;;;0.70;0.50;;;22.80;99.90;;;;;;20830128;28;20325;-67
2021/07/09 22:58:12;;;;;;;2.37;0.87;;;22.60;99.90;;;;;;20799421;28;20281;-67
2021/07/09 23:08:16;;;;;;;3.43;0.87;;;22.60;99.90;;;;;;20790408;28;20309;-67
2021/07/09 23:18:20;;;;;;;1.13;0.97;;;22.50;99.90;;;;;;20763920;28;20333;-67
2021/07/09 23:28:24;;;;;;;0.50;0.40;;;22.40;99.90;;;;;;20767411;28;20225;-67
2021/07/09 23:38:29;;;;;;;1.57;0.53;;;22.30;99.90;;;;;;20786314;28;20197;-67
2021/07/09 23:48:33;;;;;;;0.70;0.40;;;22.20;99.90;;;;;;20802248;28;20680;-68
2021/07/09 23:58:38;;;;;;;0.53;0.30;;;22.10;99.90;;;;;;20783628;28;20187;-68
